sensor_id;sensor_type;location;lat;lon;timestamp;P1;durP1;ratioP1;P2;durP2;ratioP2
41201;SDS011;26936;50.524;8.684;2024-02-21T00:02:19;17.25;;;5.63;;
41201;SDS011;26936;50.524;8.684;2024-02-21T00:04:44;14.48;;;4.40;;
41201;SDS011;26936;50.524;8.684;2024-02-21T00:07:09;13.10;;;4.95;;
41201;SDS011;26936;50.524;8.684;2024-02-21T00:09:35;12.98;;;4.22;;
41201;SDS011;26936;50.524;8.684;2024-02-21T00:12:00;16.00;;;5.03;;
41201;SDS011;26936;50.524;8.684;2024-02-21T00:14:26;15.35;;;4.30;;
41201;SDS011;26936;50.524;8.684;2024-02-21T00:16:51;12.90;;;4.25;;
41201;SDS011;26936;50.524;8.684;2024-02-21T00:19:16;15.40;;;4.65;;
41201;SDS011;26936;50.524;8.684;2024-02-21T00:21:42;18.48;;;5.07;;
41201;SDS011;26936;50.524;8.684;2024-02-21T00:24:07;14.07;;;5.00;;
41201;SDS011;26936;50.524;8.684;2024-02-21T00:26:32;14.05;;;4.68;;
41201;SDS011;26936;50.524;8.684;2024-02-21T00:28:57;14.83;;;4.57;;
41201;SDS011;26936;50.524;8.684;2024-02-21T00:31:23;13.90;;;4.43;;
41201;SDS011;26936;50.524;8.684;2024-02-21T00:33:48;16.58;;;4.55;;
41201;SDS011;26936;50.524;8.684;2024-02-21T00:36:13;11.60;;;4.65;;
41201;SDS011;26936;50.524;8.684;2024-02-21T00:38:39;11.57;;;4.53;;
41201;SDS011;26936;50.524;8.684;2024-02-21T00:41:05;13.85;;;4.35;;
41201;SDS011;26936;50.524;8.684;2024-02-21T00:43:30;13.63;;;4.47;;
41201;SDS011;26936;50.524;8.684;2024-02-21T00:45:55;18.00;;;5.23;;
41201;SDS011;26936;50.524;8.684;2024-02-21T00:48:21;15.15;;;6.13;;
41201;SDS011;26936;50.524;8.684;2024-02-21T00:50:46;16.23;;;4.47;;
41201;SDS011;26936;50.524;8.684;2024-02-21T00:53:12;13.98;;;4.88;;
41201;SDS011;26936;50.524;8.684;2024-02-21T00:55:37;16.02;;;4.45;;
41201;SDS011;26936;50.524;8.684;2024-02-21T00:58:02;17.23;;;5.20;;
41201;SDS011;26936;50.524;8.684;2024-02-21T01:00:28;12.65;;;4.22;;
41201;SDS011;26936;50.524;8.684;2024-02-21T01:02:53;15.53;;;5.13;;
41201;SDS011;26936;50.524;8.684;2024-02-21T01:05:18;13.57;;;4.43;;
41201;SDS011;26936;50.524;8.684;2024-02-21T01:07:45;17.63;;;5.35;;
41201;SDS011;26936;50.524;8.684;2024-02-21T01:10:10;12.70;;;4.75;;
41201;SDS011;26936;50.524;8.684;2024-02-21T01:12:35;14.82;;;4.93;;
41201;SDS011;26936;50.524;8.684;2024-02-21T01:15:01;12.70;;;4.47;;
41201;SDS011;26936;50.524;8.684;2024-02-21T01:17:26;17.33;;;5.10;;
41201;SDS011;26936;50.524;8.684;2024-02-21T01:19:51;14.63;;;5.17;;
41201;SDS011;26936;50.524;8.684;2024-02-21T01:22:16;15.27;;;5.00;;
41201;SDS011;26936;50.524;8.684;2024-02-21T01:24:42;20.75;;;4.88;;
41201;SDS011;26936;50.524;8.684;2024-02-21T01:27:08;14.98;;;5.43;;
41201;SDS011;26936;50.524;8.684;2024-02-21T01:29:33;13.95;;;4.63;;
41201;SDS011;26936;50.524;8.684;2024-02-21T01:31:58;12.90;;;5.10;;
41201;SDS011;26936;50.524;8.684;2024-02-21T01:34:24;11.43;;;4.88;;
41201;SDS011;26936;50.524;8.684;2024-02-21T01:36:49;15.80;;;4.68;;
41201;SDS011;26936;50.524;8.684;2024-02-21T01:39:15;10.25;;;4.50;;
41201;SDS011;26936;50.524;8.684;2024-02-21T01:41:40;18.05;;;5.55;;
41201;SDS011;26936;50.524;8.684;2024-02-21T01:44:06;13.10;;;4.40;;
41201;SDS011;26936;50.524;8.684;2024-02-21T01:46:31;14.82;;;5.05;;
41201;SDS011;26936;50.524;8.684;2024-02-21T01:48:57;16.40;;;4.72;;
41201;SDS011;26936;50.524;8.684;2024-02-21T01:51:23;14.88;;;4.40;;
41201;SDS011;26936;50.524;8.684;2024-02-21T01:53:49;15.20;;;4.93;;
41201;SDS011;26936;50.524;8.684;2024-02-21T01:56:16;11.77;;;4.45;;
41201;SDS011;26936;50.524;8.684;2024-02-21T01:58:42;14.00;;;4.60;;
41201;SDS011;26936;50.524;8.684;2024-02-21T02:01:09;13.88;;;4.18;;
41201;SDS011;26936;50.524;8.684;2024-02-21T02:03:35;11.23;;;4.68;;
41201;SDS011;26936;50.524;8.684;2024-02-21T02:06:00;15.52;;;4.30;;
41201;SDS011;26936;50.524;8.684;2024-02-21T02:08:25;14.27;;;4.72;;
41201;SDS011;26936;50.524;8.684;2024-02-21T02:10:51;14.27;;;4.47;;
41201;SDS011;26936;50.524;8.684;2024-02-21T02:13:17;16.85;;;4.47;;
41201;SDS011;26936;50.524;8.684;2024-02-21T02:18:07;17.03;;;5.60;;
41201;SDS011;26936;50.524;8.684;2024-02-21T02:20:33;14.07;;;4.80;;
41201;SDS011;26936;50.524;8.684;2024-02-21T02:22:59;10.60;;;4.32;;
41201;SDS011;26936;50.524;8.684;2024-02-21T02:25:24;12.57;;;4.15;;
41201;SDS011;26936;50.524;8.684;2024-02-21T02:27:51;9.82;;;4.00;;
41201;SDS011;26936;50.524;8.684;2024-02-21T02:30:17;10.88;;;4.63;;
41201;SDS011;26936;50.524;8.684;2024-02-21T02:32:45;11.68;;;4.10;;
41201;SDS011;26936;50.524;8.684;2024-02-21T02:35:11;12.95;;;4.32;;
41201;SDS011;26936;50.524;8.684;2024-02-21T02:37:36;19.27;;;4.00;;
41201;SDS011;26936;50.524;8.684;2024-02-21T02:40:03;13.00;;;4.55;;
41201;SDS011;26936;50.524;8.684;2024-02-21T02:42:30;8.32;;;3.60;;
41201;SDS011;26936;50.524;8.684;2024-02-21T02:44:56;11.77;;;4.32;;
41201;SDS011;26936;50.524;8.684;2024-02-21T02:47:22;13.15;;;4.32;;
41201;SDS011;26936;50.524;8.684;2024-02-21T02:49:47;13.23;;;4.30;;
41201;SDS011;26936;50.524;8.684;2024-02-21T02:52:15;14.43;;;4.30;;
41201;SDS011;26936;50.524;8.684;2024-02-21T02:54:41;15.13;;;4.63;;
41201;SDS011;26936;50.524;8.684;2024-02-21T02:57:06;18.93;;;4.90;;
41201;SDS011;26936;50.524;8.684;2024-02-21T02:59:32;14.13;;;4.32;;
41201;SDS011;26936;50.524;8.684;2024-02-21T03:01:57;11.93;;;4.32;;
41201;SDS011;26936;50.524;8.684;2024-02-21T03:04:23;18.05;;;4.75;;
41201;SDS011;26936;50.524;8.684;2024-02-21T03:06:48;11.50;;;3.85;;
41201;SDS011;26936;50.524;8.684;2024-02-21T03:09:14;16.27;;;4.50;;
41201;SDS011;26936;50.524;8.684;2024-02-21T03:11:40;14.25;;;4.22;;
41201;SDS011;26936;50.524;8.684;2024-02-21T03:14:08;10.68;;;4.00;;
41201;SDS011;26936;50.524;8.684;2024-02-21T03:16:33;9.07;;;3.97;;
41201;SDS011;26936;50.524;8.684;2024-02-21T03:18:59;11.90;;;4.63;;
41201;SDS011;26936;50.524;8.684;2024-02-21T03:21:24;11.82;;;4.28;;
41201;SDS011;26936;50.524;8.684;2024-02-21T03:23:49;11.98;;;4.03;;
41201;SDS011;26936;50.524;8.684;2024-02-21T03:26:15;12.43;;;4.38;;
41201;SDS011;26936;50.524;8.684;2024-02-21T03:28:42;12.90;;;3.92;;
41201;SDS011;26936;50.524;8.684;2024-02-21T03:31:10;10.23;;;3.97;;
41201;SDS011;26936;50.524;8.684;2024-02-21T03:33:36;13.48;;;4.15;;
41201;SDS011;26936;50.524;8.684;2024-02-21T03:36:01;12.82;;;4.22;;
41201;SDS011;26936;50.524;8.684;2024-02-21T03:38:27;9.25;;;4.10;;
41201;SDS011;26936;50.524;8.684;2024-02-21T03:40:52;11.90;;;4.00;;
41201;SDS011;26936;50.524;8.684;2024-02-21T03:43:18;13.68;;;4.80;;
41201;SDS011;26936;50.524;8.684;2024-02-21T03:45:43;11.40;;;3.90;;
41201;SDS011;26936;50.524;8.684;2024-02-21T03:48:08;9.57;;;4.82;;
41201;SDS011;26936;50.524;8.684;2024-02-21T03:50:34;10.43;;;4.43;;
41201;SDS011;26936;50.524;8.684;2024-02-21T03:52:59;11.02;;;4.05;;
41201;SDS011;26936;50.524;8.684;2024-02-21T03:55:24;15.40;;;4.10;;
41201;SDS011;26936;50.524;8.684;2024-02-21T03:57:49;14.13;;;5.03;;
41201;SDS011;26936;50.524;8.684;2024-02-21T04:00:15;13.35;;;4.15;;
41201;SDS011;26936;50.524;8.684;2024-02-21T04:02:40;14.15;;;4.43;;
41201;SDS011;26936;50.524;8.684;2024-02-21T04:05:06;10.80;;;3.90;;
41201;SDS011;26936;50.524;8.684;2024-02-21T04:07:35;11.80;;;3.88;;
41201;SDS011;26936;50.524;8.684;2024-02-21T04:10:01;9.50;;;3.50;;
41201;SDS011;26936;50.524;8.684;2024-02-21T04:12:27;10.10;;;3.35;;
41201;SDS011;26936;50.524;8.684;2024-02-21T04:14:52;11.27;;;3.45;;
41201;SDS011;26936;50.524;8.684;2024-02-21T04:17:17;11.60;;;4.10;;
41201;SDS011;26936;50.524;8.684;2024-02-21T04:19:42;14.20;;;4.13;;
41201;SDS011;26936;50.524;8.684;2024-02-21T04:22:08;14.53;;;4.20;;
41201;SDS011;26936;50.524;8.684;2024-02-21T04:24:33;13.17;;;3.83;;
41201;SDS011;26936;50.524;8.684;2024-02-21T04:26:58;12.95;;;4.22;;
41201;SDS011;26936;50.524;8.684;2024-02-21T04:29:24;10.27;;;3.75;;
41201;SDS011;26936;50.524;8.684;2024-02-21T04:31:49;11.27;;;3.88;;
41201;SDS011;26936;50.524;8.684;2024-02-21T04:34:14;12.23;;;4.40;;
41201;SDS011;26936;50.524;8.684;2024-02-21T04:36:39;10.73;;;3.75;;
41201;SDS011;26936;50.524;8.684;2024-02-21T04:39:05;11.38;;;3.72;;
41201;SDS011;26936;50.524;8.684;2024-02-21T04:41:30;16.33;;;4.25;;
41201;SDS011;26936;50.524;8.684;2024-02-21T04:43:55;13.97;;;4.10;;
41201;SDS011;26936;50.524;8.684;2024-02-21T04:46:21;10.50;;;3.65;;
41201;SDS011;26936;50.524;8.684;2024-02-21T04:48:46;11.77;;;3.78;;
41201;SDS011;26936;50.524;8.684;2024-02-21T04:51:11;10.35;;;3.75;;
41201;SDS011;26936;50.524;8.684;2024-02-21T04:53:39;12.13;;;3.72;;
41201;SDS011;26936;50.524;8.684;2024-02-21T04:56:04;13.95;;;3.83;;
41201;SDS011;26936;50.524;8.684;2024-02-21T04:58:29;12.15;;;3.92;;
41201;SDS011;26936;50.524;8.684;2024-02-21T05:00:55;24.58;;;3.90;;
41201;SDS011;26936;50.524;8.684;2024-02-21T05:03:20;13.45;;;3.92;;
41201;SDS011;26936;50.524;8.684;2024-02-21T05:05:46;11.82;;;4.15;;
41201;SDS011;26936;50.524;8.684;2024-02-21T05:08:12;13.50;;;4.30;;
41201;SDS011;26936;50.524;8.684;2024-02-21T05:10:37;16.33;;;4.07;;
41201;SDS011;26936;50.524;8.684;2024-02-21T05:13:03;12.15;;;3.80;;
41201;SDS011;26936;50.524;8.684;2024-02-21T05:15:29;10.35;;;4.18;;
41201;SDS011;26936;50.524;8.684;2024-02-21T05:17:54;10.52;;;4.00;;
41201;SDS011;26936;50.524;8.684;2024-02-21T05:20:19;11.77;;;3.80;;
41201;SDS011;26936;50.524;8.684;2024-02-21T05:22:45;10.88;;;3.63;;
41201;SDS011;26936;50.524;8.684;2024-02-21T05:25:10;12.40;;;4.30;;
41201;SDS011;26936;50.524;8.684;2024-02-21T05:27:35;12.60;;;3.75;;
41201;SDS011;26936;50.524;8.684;2024-02-21T05:30:01;9.15;;;3.05;;
41201;SDS011;26936;50.524;8.684;2024-02-21T05:32:27;8.30;;;3.60;;
41201;SDS011;26936;50.524;8.684;2024-02-21T05:34:53;16.75;;;3.80;;
41201;SDS011;26936;50.524;8.684;2024-02-21T05:37:18;8.35;;;3.22;;
41201;SDS011;26936;50.524;8.684;2024-02-21T05:39:43;10.80;;;3.60;;
41201;SDS011;26936;50.524;8.684;2024-02-21T05:42:09;13.15;;;3.63;;
41201;SDS011;26936;50.524;8.684;2024-02-21T05:44:34;11.53;;;3.97;;
41201;SDS011;26936;50.524;8.684;2024-02-21T05:46:59;10.32;;;3.25;;
41201;SDS011;26936;50.524;8.684;2024-02-21T05:49:24;8.70;;;3.50;;
41201;SDS011;26936;50.524;8.684;2024-02-21T05:51:50;9.20;;;3.03;;
41201;SDS011;26936;50.524;8.684;2024-02-21T05:54:15;11.07;;;3.40;;
41201;SDS011;26936;50.524;8.684;2024-02-21T05:56:43;10.85;;;3.08;;
41201;SDS011;26936;50.524;8.684;2024-02-21T05:59:09;10.60;;;3.63;;
41201;SDS011;26936;50.524;8.684;2024-02-21T06:01:35;10.53;;;3.23;;
41201;SDS011;26936;50.524;8.684;2024-02-21T06:04:00;11.07;;;3.40;;
41201;SDS011;26936;50.524;8.684;2024-02-21T06:06:25;9.23;;;3.10;;
41201;SDS011;26936;50.524;8.684;2024-02-21T06:08:51;15.23;;;4.10;;
41201;SDS011;26936;50.524;8.684;2024-02-21T06:11:16;15.30;;;5.20;;
41201;SDS011;26936;50.524;8.684;2024-02-21T06:13:41;12.20;;;4.25;;
41201;SDS011;26936;50.524;8.684;2024-02-21T06:16:06;9.20;;;3.95;;
41201;SDS011;26936;50.524;8.684;2024-02-21T06:18:32;13.52;;;3.85;;
41201;SDS011;26936;50.524;8.684;2024-02-21T06:21:00;14.27;;;4.43;;
41201;SDS011;26936;50.524;8.684;2024-02-21T06:23:25;14.83;;;4.50;;
41201;SDS011;26936;50.524;8.684;2024-02-21T06:25:50;15.10;;;4.32;;
41201;SDS011;26936;50.524;8.684;2024-02-21T06:28:16;17.00;;;4.90;;
41201;SDS011;26936;50.524;8.684;2024-02-21T06:30:41;11.57;;;3.80;;
41201;SDS011;26936;50.524;8.684;2024-02-21T06:33:06;14.47;;;4.50;;
41201;SDS011;26936;50.524;8.684;2024-02-21T06:35:33;16.25;;;4.50;;
41201;SDS011;26936;50.524;8.684;2024-02-21T06:37:58;10.27;;;4.00;;
41201;SDS011;26936;50.524;8.684;2024-02-21T06:40:23;14.90;;;3.70;;
41201;SDS011;26936;50.524;8.684;2024-02-21T06:42:49;10.50;;;3.63;;
41201;SDS011;26936;50.524;8.684;2024-02-21T06:45:15;15.82;;;3.65;;
41201;SDS011;26936;50.524;8.684;2024-02-21T06:47:41;12.18;;;3.90;;
41201;SDS011;26936;50.524;8.684;2024-02-21T06:50:07;9.05;;;3.33;;
41201;SDS011;26936;50.524;8.684;2024-02-21T06:52:33;11.25;;;3.75;;
41201;SDS011;26936;50.524;8.684;2024-02-21T06:54:59;10.38;;;3.42;;
41201;SDS011;26936;50.524;8.684;2024-02-21T06:57:25;13.50;;;3.97;;
41201;SDS011;26936;50.524;8.684;2024-02-21T06:59:51;13.63;;;3.97;;
41201;SDS011;26936;50.524;8.684;2024-02-21T07:02:16;12.18;;;3.78;;
41201;SDS011;26936;50.524;8.684;2024-02-21T07:04:41;11.00;;;3.92;;
41201;SDS011;26936;50.524;8.684;2024-02-21T07:07:07;15.13;;;4.18;;
41201;SDS011;26936;50.524;8.684;2024-02-21T07:09:32;15.50;;;4.00;;
41201;SDS011;26936;50.524;8.684;2024-02-21T07:11:58;10.65;;;3.40;;
41201;SDS011;26936;50.524;8.684;2024-02-21T07:14:23;14.85;;;4.60;;
41201;SDS011;26936;50.524;8.684;2024-02-21T07:16:49;12.77;;;3.60;;
41201;SDS011;26936;50.524;8.684;2024-02-21T07:19:14;13.15;;;3.63;;
41201;SDS011;26936;50.524;8.684;2024-02-21T07:21:39;14.30;;;3.93;;
41201;SDS011;26936;50.524;8.684;2024-02-21T07:24:07;12.70;;;3.53;;
41201;SDS011;26936;50.524;8.684;2024-02-21T07:26:32;10.88;;;3.70;;
41201;SDS011;26936;50.524;8.684;2024-02-21T07:28:58;8.25;;;3.65;;
41201;SDS011;26936;50.524;8.684;2024-02-21T07:31:23;10.67;;;3.10;;
41201;SDS011;26936;50.524;8.684;2024-02-21T07:33:48;10.97;;;3.37;;
41201;SDS011;26936;50.524;8.684;2024-02-21T07:36:15;10.07;;;3.03;;
41201;SDS011;26936;50.524;8.684;2024-02-21T07:38:40;11.57;;;3.75;;
41201;SDS011;26936;50.524;8.684;2024-02-21T07:41:06;12.43;;;3.30;;
41201;SDS011;26936;50.524;8.684;2024-02-21T07:43:31;10.60;;;3.80;;
41201;SDS011;26936;50.524;8.684;2024-02-21T07:45:57;9.60;;;3.00;;
41201;SDS011;26936;50.524;8.684;2024-02-21T07:48:22;10.43;;;3.58;;
41201;SDS011;26936;50.524;8.684;2024-02-21T07:50:50;12.23;;;3.20;;
41201;SDS011;26936;50.524;8.684;2024-02-21T07:53:15;14.55;;;4.05;;
41201;SDS011;26936;50.524;8.684;2024-02-21T07:55:41;16.55;;;3.83;;
41201;SDS011;26936;50.524;8.684;2024-02-21T07:58:06;13.70;;;4.15;;
41201;SDS011;26936;50.524;8.684;2024-02-21T08:00:32;12.05;;;3.65;;
41201;SDS011;26936;50.524;8.684;2024-02-21T08:02:58;11.35;;;3.25;;
41201;SDS011;26936;50.524;8.684;2024-02-21T08:05:23;7.93;;;3.35;;
41201;SDS011;26936;50.524;8.684;2024-02-21T08:07:49;14.63;;;3.42;;
41201;SDS011;26936;50.524;8.684;2024-02-21T08:10:14;13.77;;;3.40;;
41201;SDS011;26936;50.524;8.684;2024-02-21T08:12:39;11.88;;;3.53;;
41201;SDS011;26936;50.524;8.684;2024-02-21T08:15:05;10.52;;;3.50;;
41201;SDS011;26936;50.524;8.684;2024-02-21T08:17:31;16.77;;;3.85;;
41201;SDS011;26936;50.524;8.684;2024-02-21T08:19:56;13.05;;;3.35;;
41201;SDS011;26936;50.524;8.684;2024-02-21T08:22:22;14.03;;;3.53;;
41201;SDS011;26936;50.524;8.684;2024-02-21T08:24:47;9.57;;;3.23;;
41201;SDS011;26936;50.524;8.684;2024-02-21T08:27:12;13.17;;;3.73;;
41201;SDS011;26936;50.524;8.684;2024-02-21T08:29:37;8.87;;;3.10;;
41201;SDS011;26936;50.524;8.684;2024-02-21T08:32:03;11.38;;;3.53;;
41201;SDS011;26936;50.524;8.684;2024-02-21T08:34:28;11.23;;;3.25;;
41201;SDS011;26936;50.524;8.684;2024-02-21T08:36:55;14.55;;;3.67;;
41201;SDS011;26936;50.524;8.684;2024-02-21T08:39:20;11.43;;;3.60;;
41201;SDS011;26936;50.524;8.684;2024-02-21T08:41:46;14.38;;;3.88;;
41201;SDS011;26936;50.524;8.684;2024-02-21T08:44:11;11.55;;;3.17;;
41201;SDS011;26936;50.524;8.684;2024-02-21T08:46:36;13.30;;;3.47;;
41201;SDS011;26936;50.524;8.684;2024-02-21T08:49:05;11.65;;;3.50;;
41201;SDS011;26936;50.524;8.684;2024-02-21T08:51:30;10.98;;;3.97;;
41201;SDS011;26936;50.524;8.684;2024-02-21T08:53:56;7.93;;;3.40;;
41201;SDS011;26936;50.524;8.684;2024-02-21T08:56:21;11.13;;;3.65;;
41201;SDS011;26936;50.524;8.684;2024-02-21T08:58:46;12.40;;;4.15;;
41201;SDS011;26936;50.524;8.684;2024-02-21T09:01:11;7.22;;;2.90;;
41201;SDS011;26936;50.524;8.684;2024-02-21T09:03:37;12.10;;;3.28;;
41201;SDS011;26936;50.524;8.684;2024-02-21T09:06:06;8.15;;;3.63;;
41201;SDS011;26936;50.524;8.684;2024-02-21T09:08:33;12.13;;;3.60;;
41201;SDS011;26936;50.524;8.684;2024-02-21T09:10:59;10.52;;;3.55;;
41201;SDS011;26936;50.524;8.684;2024-02-21T09:13:26;10.68;;;3.55;;
41201;SDS011;26936;50.524;8.684;2024-02-21T09:15:51;8.23;;;3.22;;
41201;SDS011;26936;50.524;8.684;2024-02-21T09:18:17;6.65;;;3.58;;
41201;SDS011;26936;50.524;8.684;2024-02-21T09:20:43;10.93;;;3.60;;
41201;SDS011;26936;50.524;8.684;2024-02-21T09:23:08;10.63;;;3.42;;
41201;SDS011;26936;50.524;8.684;2024-02-21T09:25:34;8.30;;;3.10;;
41201;SDS011;26936;50.524;8.684;2024-02-21T09:28:00;10.40;;;3.30;;
41201;SDS011;26936;50.524;8.684;2024-02-21T09:30:26;10.20;;;3.10;;
41201;SDS011;26936;50.524;8.684;2024-02-21T09:32:52;13.37;;;3.37;;
41201;SDS011;26936;50.524;8.684;2024-02-21T09:35:17;9.88;;;3.58;;
41201;SDS011;26936;50.524;8.684;2024-02-21T09:37:43;7.55;;;3.35;;
41201;SDS011;26936;50.524;8.684;2024-02-21T09:40:08;8.73;;;3.28;;
41201;SDS011;26936;50.524;8.684;2024-02-21T09:42:38;9.88;;;4.03;;
41201;SDS011;26936;50.524;8.684;2024-02-21T09:45:08;10.57;;;3.10;;
41201;SDS011;26936;50.524;8.684;2024-02-21T09:47:56;7.38;;;2.65;;
41201;SDS011;26936;50.524;8.684;2024-02-21T09:50:31;8.30;;;2.90;;
41201;SDS011;26936;50.524;8.684;2024-02-21T09:53:03;9.82;;;3.63;;
41201;SDS011;26936;50.524;8.684;2024-02-21T09:55:29;12.75;;;3.20;;
41201;SDS011;26936;50.524;8.684;2024-02-21T09:57:59;8.20;;;3.20;;
41201;SDS011;26936;50.524;8.684;2024-02-21T10:00:27;12.38;;;4.30;;
41201;SDS011;26936;50.524;8.684;2024-02-21T10:02:53;7.90;;;2.80;;
41201;SDS011;26936;50.524;8.684;2024-02-21T10:05:18;8.88;;;3.22;;
41201;SDS011;26936;50.524;8.684;2024-02-21T10:07:44;10.98;;;3.13;;
41201;SDS011;26936;50.524;8.684;2024-02-21T10:10:10;10.50;;;3.15;;
41201;SDS011;26936;50.524;8.684;2024-02-21T10:12:36;15.18;;;3.42;;
41201;SDS011;26936;50.524;8.684;2024-02-21T10:15:01;9.83;;;3.03;;
41201;SDS011;26936;50.524;8.684;2024-02-21T10:17:34;11.55;;;3.58;;
41201;SDS011;26936;50.524;8.684;2024-02-21T10:20:10;13.13;;;3.00;;
41201;SDS011;26936;50.524;8.684;2024-02-21T10:22:37;8.88;;;3.13;;
41201;SDS011;26936;50.524;8.684;2024-02-21T10:25:08;8.05;;;2.60;;
41201;SDS011;26936;50.524;8.684;2024-02-21T10:27:37;10.15;;;3.05;;
41201;SDS011;26936;50.524;8.684;2024-02-21T10:30:13;7.78;;;3.10;;
41201;SDS011;26936;50.524;8.684;2024-02-21T10:32:51;5.60;;;2.72;;
41201;SDS011;26936;50.524;8.684;2024-02-21T10:37:59;10.80;;;2.97;;
41201;SDS011;26936;50.524;8.684;2024-02-21T10:42:57;13.88;;;2.90;;
41201;SDS011;26936;50.524;8.684;2024-02-21T10:45:30;8.43;;;2.40;;
41201;SDS011;26936;50.524;8.684;2024-02-21T10:48:01;10.43;;;2.72;;
41201;SDS011;26936;50.524;8.684;2024-02-21T10:50:53;7.05;;;2.85;;
41201;SDS011;26936;50.524;8.684;2024-02-21T10:58:51;7.93;;;2.75;;
41201;SDS011;26936;50.524;8.684;2024-02-21T11:01:18;7.35;;;2.42;;
41201;SDS011;26936;50.524;8.684;2024-02-21T11:03:44;7.53;;;2.67;;
41201;SDS011;26936;50.524;8.684;2024-02-21T11:06:12;7.85;;;2.47;;
41201;SDS011;26936;50.524;8.684;2024-02-21T11:08:40;11.75;;;3.30;;
41201;SDS011;26936;50.524;8.684;2024-02-21T11:11:05;8.38;;;3.00;;
41201;SDS011;26936;50.524;8.684;2024-02-21T11:13:34;14.48;;;2.90;;
41201;SDS011;26936;50.524;8.684;2024-02-21T11:16:10;7.00;;;3.08;;
41201;SDS011;26936;50.524;8.684;2024-02-21T11:18:39;11.50;;;2.60;;
41201;SDS011;26936;50.524;8.684;2024-02-21T11:21:04;11.75;;;2.75;;
41201;SDS011;26936;50.524;8.684;2024-02-21T11:23:30;8.63;;;2.53;;
41201;SDS011;26936;50.524;8.684;2024-02-21T11:26:06;11.48;;;2.95;;
41201;SDS011;26936;50.524;8.684;2024-02-21T11:28:32;9.85;;;2.60;;
41201;SDS011;26936;50.524;8.684;2024-02-21T11:31:07;9.50;;;2.35;;
41201;SDS011;26936;50.524;8.684;2024-02-21T11:33:34;12.02;;;4.13;;
41201;SDS011;26936;50.524;8.684;2024-02-21T11:36:00;6.85;;;2.30;;
41201;SDS011;26936;50.524;8.684;2024-02-21T11:38:26;5.90;;;2.13;;
41201;SDS011;26936;50.524;8.684;2024-02-21T11:40:51;7.87;;;2.37;;
41201;SDS011;26936;50.524;8.684;2024-02-21T11:43:17;8.63;;;2.63;;
41201;SDS011;26936;50.524;8.684;2024-02-21T11:45:42;9.35;;;2.35;;
41201;SDS011;26936;50.524;8.684;2024-02-21T11:48:07;8.20;;;3.20;;
41201;SDS011;26936;50.524;8.684;2024-02-21T11:50:34;7.50;;;3.08;;
41201;SDS011;26936;50.524;8.684;2024-02-21T11:53:01;8.60;;;3.25;;
41201;SDS011;26936;50.524;8.684;2024-02-21T11:55:26;9.67;;;3.20;;
41201;SDS011;26936;50.524;8.684;2024-02-21T11:57:51;9.70;;;3.50;;
41201;SDS011;26936;50.524;8.684;2024-02-21T12:00:17;9.10;;;3.20;;
41201;SDS011;26936;50.524;8.684;2024-02-21T12:02:45;10.27;;;3.10;;
41201;SDS011;26936;50.524;8.684;2024-02-21T12:05:11;10.00;;;3.53;;
41201;SDS011;26936;50.524;8.684;2024-02-21T12:07:36;9.60;;;3.53;;
41201;SDS011;26936;50.524;8.684;2024-02-21T12:10:07;12.73;;;4.00;;
41201;SDS011;26936;50.524;8.684;2024-02-21T12:12:35;11.77;;;4.03;;
41201;SDS011;26936;50.524;8.684;2024-02-21T12:15:02;11.68;;;3.72;;
41201;SDS011;26936;50.524;8.684;2024-02-21T12:17:34;11.05;;;4.20;;
41201;SDS011;26936;50.524;8.684;2024-02-21T12:20:04;11.98;;;4.20;;
41201;SDS011;26936;50.524;8.684;2024-02-21T12:22:31;13.52;;;4.95;;
41201;SDS011;26936;50.524;8.684;2024-02-21T12:24:57;9.85;;;4.10;;
41201;SDS011;26936;50.524;8.684;2024-02-21T12:27:23;12.40;;;4.80;;
41201;SDS011;26936;50.524;8.684;2024-02-21T12:29:49;9.90;;;4.28;;
41201;SDS011;26936;50.524;8.684;2024-02-21T12:32:14;12.35;;;4.38;;
41201;SDS011;26936;50.524;8.684;2024-02-21T12:34:39;9.77;;;3.97;;
41201;SDS011;26936;50.524;8.684;2024-02-21T12:37:05;12.63;;;4.45;;
41201;SDS011;26936;50.524;8.684;2024-02-21T12:39:30;13.00;;;4.20;;
41201;SDS011;26936;50.524;8.684;2024-02-21T12:41:56;9.07;;;4.03;;
41201;SDS011;26936;50.524;8.684;2024-02-21T12:44:22;7.53;;;3.67;;
41201;SDS011;26936;50.524;8.684;2024-02-21T12:46:49;9.80;;;4.65;;
41201;SDS011;26936;50.524;8.684;2024-02-21T12:49:17;12.38;;;4.18;;
41201;SDS011;26936;50.524;8.684;2024-02-21T12:51:43;11.45;;;3.65;;
41201;SDS011;26936;50.524;8.684;2024-02-21T12:54:08;10.07;;;3.85;;
41201;SDS011;26936;50.524;8.684;2024-02-21T12:56:36;10.73;;;3.67;;
41201;SDS011;26936;50.524;8.684;2024-02-21T12:59:04;7.90;;;3.65;;
41201;SDS011;26936;50.524;8.684;2024-02-21T13:01:30;6.88;;;3.97;;
41201;SDS011;26936;50.524;8.684;2024-02-21T13:03:55;8.38;;;3.58;;
41201;SDS011;26936;50.524;8.684;2024-02-21T13:06:22;5.80;;;2.92;;
41201;SDS011;26936;50.524;8.684;2024-02-21T13:08:47;7.80;;;3.33;;
41201;SDS011;26936;50.524;8.684;2024-02-21T13:11:13;10.80;;;3.20;;
41201;SDS011;26936;50.524;8.684;2024-02-21T13:13:38;10.02;;;3.65;;
41201;SDS011;26936;50.524;8.684;2024-02-21T13:16:03;9.68;;;2.85;;
41201;SDS011;26936;50.524;8.684;2024-02-21T13:18:29;10.40;;;3.67;;
41201;SDS011;26936;50.524;8.684;2024-02-21T13:20:55;9.30;;;3.20;;
41201;SDS011;26936;50.524;8.684;2024-02-21T13:23:20;9.50;;;3.58;;
41201;SDS011;26936;50.524;8.684;2024-02-21T13:25:49;8.45;;;2.53;;
41201;SDS011;26936;50.524;8.684;2024-02-21T13:28:15;7.50;;;3.17;;
41201;SDS011;26936;50.524;8.684;2024-02-21T13:30:41;8.70;;;2.20;;
41201;SDS011;26936;50.524;8.684;2024-02-21T13:33:07;9.57;;;2.78;;
41201;SDS011;26936;50.524;8.684;2024-02-21T13:35:32;6.95;;;2.70;;
41201;SDS011;26936;50.524;8.684;2024-02-21T13:37:58;9.32;;;2.40;;
41201;SDS011;26936;50.524;8.684;2024-02-21T13:40:23;7.07;;;2.38;;
41201;SDS011;26936;50.524;8.684;2024-02-21T13:42:50;7.10;;;2.60;;
41201;SDS011;26936;50.524;8.684;2024-02-21T13:45:16;5.32;;;2.33;;
41201;SDS011;26936;50.524;8.684;2024-02-21T13:47:41;8.60;;;2.42;;
41201;SDS011;26936;50.524;8.684;2024-02-21T13:50:07;10.32;;;2.80;;
41201;SDS011;26936;50.524;8.684;2024-02-21T13:52:36;9.27;;;2.60;;
41201;SDS011;26936;50.524;8.684;2024-02-21T13:55:04;13.45;;;2.90;;
41201;SDS011;26936;50.524;8.684;2024-02-21T13:57:33;8.10;;;2.70;;
41201;SDS011;26936;50.524;8.684;2024-02-21T13:59:59;4.45;;;2.20;;
41201;SDS011;26936;50.524;8.684;2024-02-21T14:02:24;8.73;;;2.97;;
41201;SDS011;26936;50.524;8.684;2024-02-21T14:04:50;7.43;;;2.30;;
41201;SDS011;26936;50.524;8.684;2024-02-21T14:07:16;7.22;;;2.30;;
41201;SDS011;26936;50.524;8.684;2024-02-21T14:09:42;8.52;;;2.50;;
41201;SDS011;26936;50.524;8.684;2024-02-21T14:12:07;6.78;;;2.35;;
41201;SDS011;26936;50.524;8.684;2024-02-21T14:14:33;6.78;;;2.30;;
41201;SDS011;26936;50.524;8.684;2024-02-21T14:17:00;6.07;;;2.25;;
41201;SDS011;26936;50.524;8.684;2024-02-21T14:19:25;8.45;;;2.15;;
41201;SDS011;26936;50.524;8.684;2024-02-21T14:21:57;9.80;;;2.20;;
41201;SDS011;26936;50.524;8.684;2024-02-21T14:24:25;8.57;;;2.33;;
41201;SDS011;26936;50.524;8.684;2024-02-21T14:26:52;9.75;;;2.20;;
41201;SDS011;26936;50.524;8.684;2024-02-21T14:29:18;8.77;;;2.47;;
41201;SDS011;26936;50.524;8.684;2024-02-21T14:31:43;8.90;;;2.70;;
41201;SDS011;26936;50.524;8.684;2024-02-21T14:34:08;7.95;;;2.40;;
41201;SDS011;26936;50.524;8.684;2024-02-21T14:36:34;9.65;;;2.50;;
41201;SDS011;26936;50.524;8.684;2024-02-21T14:39:00;11.75;;;3.00;;
41201;SDS011;26936;50.524;8.684;2024-02-21T14:41:25;10.05;;;2.67;;
41201;SDS011;26936;50.524;8.684;2024-02-21T14:43:50;9.02;;;2.90;;
41201;SDS011;26936;50.524;8.684;2024-02-21T14:46:16;7.88;;;2.55;;